This is the latest recevied weather packets stored in our database for station/object KI7JYE. If no packets are shown the sender has not sent any weather packets the latest 10 day(s).
| Time | Temp. | Humidity | Pressure | Rain* | Wind** | Luminosity | Snow |
|---|---|---|---|---|---|---|---|
| 1777769499 | 20° C | 70% | 1010.4 hPa | 0 mm | - | 233 W/m² | - |
| 1777769196 | 20° C | 70% | 1010.4 hPa | 0 mm | - | 203 W/m² | - |
| 1777768894 | 19.44° C | 72% | 1010.4 hPa | 0 mm | - | 173 W/m² | - |
| 1777768591 | 19.44° C | 71% | 1010.2 hPa | 0 mm | - | 159 W/m² | - |
| 1777768288 | 19.44° C | 70% | 1010.3 hPa | 0 mm | - | 149 W/m² | - |
| 1777767985 | 20° C | 69% | 1010.2 hPa | 0 mm | - | 141 W/m² | - |
| 1777767682 | 20° C | 68% | 1010.2 hPa | 0 mm | - | 137 W/m² | - |
| 1777767378 | 20.56° C | 68% | 1010.2 hPa | 0 mm | - | 140 W/m² | - |
| 1777767075 | 20° C | 69% | 1010.3 hPa | 0 mm | - | 145 W/m² | - |
| 1777766773 | 20° C | 69% | 1010.5 hPa | 0 mm | - | 152 W/m² | - |
| 1777766469 | 20° C | 68% | 1010.5 hPa | 0 mm | - | 157 W/m² | - |
| 1777766166 | 20° C | 67% | 1010.4 hPa | 0 mm | - | 161 W/m² | - |
| 1777765864 | 20° C | 67% | 1010.7 hPa | 0 mm | - | 162 W/m² | - |
| 1777765559 | 20° C | 68% | 1010.4 hPa | 0 mm | - | 166 W/m² | - |
| 1777765257 | 20° C | 67% | 1010.4 hPa | 0 mm | - | 171 W/m² | - |
| 1777764952 | 20.56° C | 66% | 1010.6 hPa | 0 mm | - | 189 W/m² | - |
| 1777764649 | 20° C | 68% | 1011.1 hPa | 0 mm | - | 185 W/m² | - |
| 1777764345 | 21.11° C | 66% | 1011 hPa | 0 mm | - | 156 W/m² | - |
| 1777764043 | 21.11° C | 64% | 1010.8 hPa | 0 mm | - | 151 W/m² | - |
| 1777763739 | 20.56° C | 65% | 1011 hPa | 0 mm | - | 170 W/m² | - |
| 1777763437 | 20.56° C | 66% | 1011 hPa | 0 mm | - | 189 W/m² | - |
| 1777763136 | 21.11° C | 63% | 1011.2 hPa | 0 mm | - | 342 W/m² | - |
| 1777762834 | 21.67° C | 61% | 1011.2 hPa | 0 mm | - | 385 W/m² | - |
| 1777762529 | 20.56° C | 62% | 1011.3 hPa | 0 mm | - | 449 W/m² | - |
| 1777762226 | 20° C | 65% | 1011.4 hPa | 0 mm | - | 451 W/m² | - |
* Rain latest hour (hover to see other rain measurements)
** Current wind speed in m/s (hover to see current wind gust speed)